1NY9 weather

Caughdenoy Airport
Caughdenoy, New York, United States

Public forecast

Using degrees Fahrenheit for public forecast. Weather courtesy of forecast.io.

METAR (pilot weather report)

Closest report is Syracuse Hancock International Airport, 10.0 nm (18.4 km) SSE. Retrieved 2019/07/23 15:54 UTC (48 minutes ago):

KSYR 231554Z 00000KT 10SM FEW045 SCT150 25/13 A2990 RMK AO2 SLP119 T02500128

TAF (pilot weather forecast)

Closest forecast is Syracuse Hancock International Airport, 10.0 nm (18.4 km) SSE. Retrieved 2019/07/23 12:40 UTC (4 hours ago):

TAF KSYR 231138Z 2312/2412 31004KT P6SM SCT050 FM231500 31008KT P6SM FEW060 SCT250 FM240000 VRB03KT P6SM FEW250